Time;durP1;ratioP1;P1;durP2;ratioP2;P2;SDS_P1;SDS_P2;PMS_P1;PMS_P2;Temp;Humidity;BMP_temperature;BMP_pressure;BME280_temperature;BME280_humidity;BME280_pressure;Samples;Min_cycle;Max_cycle;Signal;HPM_P1;HPM_P2
2022/08/21 00:01:26;;;;;;;8.93;5.13;;;;;;;18.98;59.97;101632.38;6212338;23;20000;-59
2022/08/21 00:03:54;;;;;;;12.55;6.00;;;;;;;18.99;60.00;101626.47;6215683;23;20015;-59
2022/08/21 00:06:20;;;;;;;10.32;5.80;;;;;;;18.94;59.85;101623.66;6216748;23;20015;-59
2022/08/21 00:08:48;;;;;;;9.75;5.80;;;;;;;18.90;60.02;101619.75;6215995;23;20008;-59
2022/08/21 00:11:14;;;;;;;9.05;5.75;;;;;;;18.88;60.03;101622.88;6217484;23;20013;-60
2022/08/21 00:13:39;;;;;;;7.32;5.40;;;;;;;18.85;60.42;101622.59;6216567;23;20001;-60
2022/08/21 00:16:05;;;;;;;7.32;5.15;;;;;;;18.84;60.43;101624.56;6215971;23;20011;-59
2022/08/21 00:18:31;;;;;;;7.53;5.25;;;;;;;18.87;60.27;101617.53;6217000;23;20009;-60
2022/08/21 00:20:56;;;;;;;8.85;5.28;;;;;;;18.81;60.41;101618.69;6216245;23;20364;-59
2022/08/21 00:23:22;;;;;;;10.13;5.75;;;;;;;18.78;60.66;101622.06;6216074;23;20008;-59
2022/08/21 00:25:48;;;;;;;8.45;5.57;;;;;;;18.75;60.33;101620.69;6217488;23;20043;-59
2022/08/21 00:28:14;;;;;;;10.23;6.00;;;;;;;18.76;60.84;101625.19;6215188;23;20004;-59
2022/08/21 00:30:40;;;;;;;9.93;5.63;;;;;;;18.76;60.69;101616.75;6216800;23;20007;-59
2022/08/21 00:33:06;;;;;;;7.63;4.85;;;;;;;18.74;60.58;101613.38;6216984;23;20009;-59
2022/08/21 00:35:35;;;;;;;10.00;4.78;;;;;;;18.73;60.72;101616.50;6215463;23;20333;-59
2022/08/21 00:38:00;;;;;;;8.35;4.65;;;;;;;18.70;60.54;101608.59;6217609;23;20001;-60
2022/08/21 00:40:36;;;;;;;8.68;4.95;;;;;;;18.63;60.80;101606.94;6218434;23;20066;-60
2022/08/21 00:43:03;;;;;;;9.90;4.80;;;;;;;18.60;60.69;101609.50;6215734;23;20036;-59
2022/08/21 00:45:29;;;;;;;8.77;5.13;;;;;;;18.59;60.68;101602.19;6217646;23;20000;-59
2022/08/21 00:48:01;;;;;;;9.27;5.07;;;;;;;18.61;60.71;101597.13;6217080;23;20080;-60
2022/08/21 00:50:31;;;;;;;12.73;4.82;;;;;;;18.58;60.48;101597.69;6216363;23;20035;-59
2022/08/21 00:52:56;;;;;;;7.85;4.60;;;;;;;18.59;60.88;101605.00;6216970;23;20027;-59
2022/08/21 00:55:23;;;;;;;6.80;4.70;;;;;;;18.58;60.70;101601.34;6217512;23;20072;-60
2022/08/21 00:57:51;;;;;;;8.77;5.38;;;;;;;18.52;60.82;101607.28;6215962;23;20499;-60
2022/08/21 01:00:22;;;;;;;9.05;5.25;;;;;;;18.52;60.95;101610.94;6216894;23;20033;-59
2022/08/21 01:02:47;;;;;;;9.93;5.00;;;;;;;18.49;60.83;101599.44;6217670;23;20067;-59
2022/08/21 01:05:16;;;;;;;5.25;4.50;;;;;;;18.46;60.99;101605.63;6216624;23;20013;-59
2022/08/21 01:07:44;;;;;;;8.50;4.80;;;;;;;18.47;60.75;101604.47;6217236;23;20005;-59
2022/08/21 01:10:09;;;;;;;11.23;5.60;;;;;;;18.41;60.96;101598.06;6216708;23;20028;-59
2022/08/21 01:12:35;;;;;;;6.28;5.30;;;;;;;18.46;60.91;101602.81;6216481;23;20294;-59
2022/08/21 01:15:04;;;;;;;8.50;5.45;;;;;;;18.44;61.07;101603.09;6216290;23;20034;-59
2022/08/21 01:17:30;;;;;;;8.55;5.05;;;;;;;18.44;60.90;101610.69;6214315;23;20028;-59
2022/08/21 01:20:02;;;;;;;5.88;4.55;;;;;;;18.40;60.98;101611.28;6215689;23;20015;-60
2022/08/21 01:22:27;;;;;;;7.70;5.45;;;;;;;18.42;60.90;101604.50;6215570;23;20005;-60
2022/08/21 01:24:53;;;;;;;6.50;5.10;;;;;;;18.34;61.17;101598.34;6215072;23;20433;-60
2022/08/21 01:27:18;;;;;;;9.07;5.32;;;;;;;18.30;60.88;101605.69;6214319;23;20358;-60
2022/08/21 01:29:47;;;;;;;7.97;5.32;;;;;;;18.27;61.09;101594.16;6215829;23;20435;-60
2022/08/21 01:32:15;;;;;;;7.95;5.07;;;;;;;18.22;61.13;101592.22;6214619;23;20008;-60
2022/08/21 01:34:44;;;;;;;6.25;4.97;;;;;;;18.24;60.98;101589.97;6215414;23;19997;-60
2022/08/21 01:37:12;;;;;;;7.53;5.10;;;;;;;18.20;61.06;101597.31;6215732;23;20009;-60
2022/08/21 01:39:39;;;;;;;9.80;5.38;;;;;;;18.19;61.17;101600.38;6214524;23;20019;-60
2022/08/21 01:42:06;;;;;;;7.20;5.20;;;;;;;18.18;60.87;101605.16;6215042;23;20405;-60
2022/08/21 01:44:34;;;;;;;8.25;5.63;;;;;;;18.10;61.31;101602.94;6215059;23;20012;-59
2022/08/21 01:47:04;;;;;;;8.80;5.40;;;;;;;18.07;61.27;101597.88;6214250;23;20008;-60
2022/08/21 01:49:30;;;;;;;7.97;5.00;;;;;;;18.06;61.27;101602.66;6215662;23;20337;-60
2022/08/21 01:51:56;;;;;;;8.43;5.00;;;;;;;18.08;61.23;101602.41;6214960;23;20421;-60
2022/08/21 01:54:22;;;;;;;7.05;4.95;;;;;;;18.03;61.31;101593.97;6214255;23;20004;-60
2022/08/21 01:56:51;;;;;;;6.65;4.50;;;;;;;18.01;61.06;101587.81;6215137;23;20496;-60
2022/08/21 01:59:17;;;;;;;9.48;5.30;;;;;;;18.04;61.22;101592.88;6215008;23;20004;-60
2022/08/21 02:01:43;;;;;;;6.18;5.18;;;;;;;18.02;61.14;101592.28;6214515;23;20070;-60
2022/08/21 02:04:09;;;;;;;6.47;5.43;;;;;;;17.96;61.46;101587.81;6214408;23;20000;-59
2022/08/21 02:06:35;;;;;;;5.90;5.30;;;;;;;17.99;61.03;101584.44;6215274;23;20019;-59
2022/08/21 02:09:03;;;;;;;8.48;5.57;;;;;;;17.95;61.26;101575.72;6213903;23;20051;-59
2022/08/21 02:11:29;;;;;;;10.32;5.60;;;;;;;17.90;61.57;101575.75;6215173;23;20027;-59
2022/08/21 02:13:54;;;;;;;7.00;5.32;;;;;;;17.96;61.13;101571.81;6214094;23;20044;-60
2022/08/21 02:16:19;;;;;;;7.60;5.10;;;;;;;17.96;61.07;101568.16;6215283;23;20413;-60
2022/08/21 02:18:45;;;;;;;9.00;5.13;;;;;;;17.91;61.23;101569.84;6213980;23;20019;-59
2022/08/21 02:21:11;;;;;;;7.35;4.82;;;;;;;17.86;61.57;101563.41;6213927;23;20036;-60
2022/08/21 02:23:36;;;;;;;5.55;4.53;;;;;;;17.83;61.17;101562.00;6214914;23;20428;-59
2022/08/21 02:26:04;;;;;;;5.63;4.93;;;;;;;17.80;61.39;101565.41;6214359;23;20024;-60
2022/08/21 02:28:29;;;;;;;8.15;5.00;;;;;;;17.82;61.30;101568.75;6213533;23;20037;-59
2022/08/21 02:30:56;;;;;;;5.57;4.68;;;;;;;17.73;61.24;101576.03;6214884;23;20015;-60
2022/08/21 02:33:21;;;;;;;5.53;4.88;;;;;;;17.65;61.10;101580.28;6214267;23;20008;-59
2022/08/21 02:35:48;;;;;;;7.53;4.57;;;;;;;17.67;60.88;101571.56;6213472;23;20063;-59
2022/08/21 02:38:19;;;;;;;7.28;4.60;;;;;;;17.64;61.27;101577.72;6214740;23;20313;-60
2022/08/21 02:40:47;;;;;;;9.13;4.93;;;;;;;17.67;61.05;101571.56;6213835;23;20017;-59
2022/08/21 02:43:12;;;;;;;7.38;4.65;;;;;;;17.61;61.13;101570.72;6213911;23;20001;-60
2022/08/21 02:45:39;;;;;;;5.13;4.35;;;;;;;17.62;61.16;101563.16;6214499;23;20012;-60
2022/08/21 02:48:10;;;;;;;6.28;4.88;;;;;;;17.60;61.24;101571.00;6214921;23;20000;-60
2022/08/21 02:50:38;;;;;;;6.88;4.93;;;;;;;17.58;61.09;101568.47;6213624;23;20024;-60
2022/08/21 02:53:06;;;;;;;6.93;5.10;;;;;;;17.53;61.33;101568.50;6214407;23;20004;-60
2022/08/21 02:55:34;;;;;;;7.85;5.13;;;;;;;17.55;61.44;101569.03;6214126;23;20309;-59
2022/08/21 02:58:00;;;;;;;8.93;6.00;;;;;;;17.58;61.21;101556.41;6213496;23;20475;-60
2022/08/21 03:00:28;;;;;;;8.20;7.40;;;;;;;17.50;61.70;101568.22;6214472;23;20024;-60
2022/08/21 03:02:55;;;;;;;8.75;7.88;;;;;;;17.52;61.58;101568.75;6213328;23;20004;-60
2022/08/21 03:05:22;;;;;;;12.95;9.23;;;;;;;17.53;61.85;101568.50;6214323;23;20110;-60
2022/08/21 03:07:47;;;;;;;14.02;9.10;;;;;;;17.53;61.81;101562.06;6214490;23;20004;-60
2022/08/21 03:10:14;;;;;;;10.85;8.75;;;;;;;17.48;61.66;101567.66;6213287;23;20008;-59
2022/08/21 03:12:39;;;;;;;12.77;9.13;;;;;;;17.55;61.67;101565.41;6214832;23;20008;-59
2022/08/21 03:15:07;;;;;;;10.48;9.10;;;;;;;17.52;61.75;101565.97;6214559;23;20035;-59
2022/08/21 03:17:33;;;;;;;10.98;8.38;;;;;;;17.41;61.88;101559.53;6212866;23;20000;-59
2022/08/21 03:19:59;;;;;;;11.70;8.40;;;;;;;17.52;61.62;101557.53;6213902;23;20088;-59
2022/08/21 03:22:26;;;;;;;10.43;8.38;;;;;;;17.47;61.61;101563.16;6213753;23;20005;-59
2022/08/21 03:24:51;;;;;;;11.32;8.85;;;;;;;17.47;61.66;101551.94;6213403;23;20016;-59
2022/08/21 03:27:16;;;;;;;11.35;8.15;;;;;;;17.45;61.68;101559.78;6214195;23;20004;-60
2022/08/21 03:29:42;;;;;;;9.93;8.15;;;;;;;17.40;61.64;101561.47;6214568;23;20023;-60
2022/08/21 03:32:09;;;;;;;10.30;8.38;;;;;;;17.39;61.71;101554.19;6213465;23;20059;-59
2022/08/21 03:34:37;;;;;;;10.93;8.18;;;;;;;17.42;61.59;101562.06;6213301;23;20409;-59
2022/08/21 03:37:06;;;;;;;11.35;8.43;;;;;;;17.34;61.66;101553.38;6213900;23;20332;-59
2022/08/21 03:39:31;;;;;;;13.75;8.25;;;;;;;17.35;61.91;101558.69;6213076;23;20008;-59
2022/08/21 03:41:56;;;;;;;8.77;7.47;;;;;;;17.36;61.58;101548.28;6213960;23;20008;-59
2022/08/21 03:44:22;;;;;;;10.73;7.78;;;;;;;17.35;61.65;101558.69;6214019;23;20356;-59
2022/08/21 03:46:54;;;;;;;10.73;7.60;;;;;;;17.38;61.67;101554.47;6213688;23;20332;-59
2022/08/21 03:49:19;;;;;;;16.08;8.25;;;;;;;17.34;61.65;101551.41;6213691;23;20421;-59
2022/08/21 03:51:44;;;;;;;11.23;8.27;;;;;;;17.21;62.02;101546.31;6212886;23;20087;-59
2022/08/21 03:54:09;;;;;;;8.98;7.63;;;;;;;17.24;61.85;101537.34;6213177;23;20080;-60
2022/08/21 03:56:35;;;;;;;10.38;7.30;;;;;;;17.23;61.99;101546.06;6214092;23;20456;-59
2022/08/21 03:59:02;;;;;;;13.20;8.18;;;;;;;17.24;62.24;101544.94;6213319;23;20042;-59
2022/08/21 04:01:27;;;;;;;14.57;8.13;;;;;;;17.22;62.16;101542.44;6212736;23;20008;-59
2022/08/21 04:03:53;;;;;;;10.32;7.50;;;;;;;17.18;62.05;101546.91;6214002;23;20066;-59
2022/08/21 04:06:18;;;;;;;9.98;7.60;;;;;;;17.18;62.13;101552.53;6213056;23;20001;-59
2022/08/21 04:08:43;;;;;;;11.45;7.63;;;;;;;17.21;62.15;101554.75;6213736;23;20540;-59
2022/08/21 04:11:10;;;;;;;11.75;7.75;;;;;;;17.15;62.31;101553.09;6213506;23;20012;-58
2022/08/21 04:13:36;;;;;;;8.02;7.20;;;;;;;17.15;62.15;101548.31;6213143;23;20301;-60
2022/08/21 04:16:02;;;;;;;11.02;7.63;;;;;;;17.12;62.52;101559.25;6213698;23;20435;-59
2022/08/21 04:18:27;;;;;;;11.00;7.80;;;;;;;17.02;62.61;101550.84;6213813;23;20005;-59
2022/08/21 04:20:58;;;;;;;12.25;8.05;;;;;;;17.11;62.54;101557.56;6212765;23;20015;-59
2022/08/21 04:23:23;;;;;;;9.90;7.40;;;;;;;17.18;62.40;101558.13;6212883;23;20011;-60
2022/08/21 04:25:49;;;;;;;14.35;7.57;;;;;;;17.12;62.54;101562.06;6214141;23;20001;-59
2022/08/21 04:28:17;;;;;;;13.40;7.93;;;;;;;17.08;62.50;101558.97;6212445;23;20007;-58
2022/08/21 04:30:42;;;;;;;10.45;7.75;;;;;;;17.10;62.36;101561.50;6213437;23;20071;-58
2022/08/21 04:33:08;;;;;;;11.43;7.75;;;;;;;17.03;62.40;101561.78;6213660;23;20412;-59
2022/08/21 04:35:33;;;;;;;14.27;7.43;;;;;;;17.11;62.44;101565.97;6212343;23;20001;-59
2022/08/21 04:37:58;;;;;;;10.68;7.22;;;;;;;17.06;62.35;101566.81;6214003;23;20008;-60
2022/08/21 04:40:26;;;;;;;10.88;7.45;;;;;;;17.06;62.54;101574.41;6213182;23;20492;-60
2022/08/21 04:43:03;;;;;;;9.00;7.18;;;;;;;17.09;62.63;101571.84;6212144;23;20009;-59
2022/08/21 04:45:31;;;;;;;12.35;7.15;;;;;;;17.04;62.41;101569.06;6213716;23;20012;-59
2022/08/21 04:47:59;;;;;;;11.48;7.13;;;;;;;17.05;62.46;101575.50;6213122;23;20013;-59
2022/08/21 04:50:29;;;;;;;11.35;7.43;;;;;;;17.01;62.49;101574.38;6213499;23;20008;-59
2022/08/21 04:52:55;;;;;;;10.77;7.38;;;;;;;16.99;62.51;101566.25;6215711;23;20012;-59
2022/08/21 04:55:22;;;;;;;16.27;7.65;;;;;;;16.94;62.68;101580.28;6216098;23;20332;-59
2022/08/21 04:57:53;;;;;;;11.27;7.07;;;;;;;16.98;62.70;101580.53;6215082;23;20067;-59
2022/08/21 05:00:19;;;;;;;10.43;7.03;;;;;;;16.95;62.52;101569.91;6215287;23;20035;-60
2022/08/21 05:02:47;;;;;;;14.00;7.35;;;;;;;16.88;62.87;101581.38;6214488;23;20375;-60
2022/08/21 05:05:13;;;;;;;10.15;7.10;;;;;;;16.86;62.94;101584.47;6215193;23;20001;-59
2022/08/21 05:07:38;;;;;;;9.95;6.60;;;;;;;16.93;62.66;101576.59;6215444;23;20015;-60
2022/08/21 05:10:04;;;;;;;11.30;6.50;;;;;;;16.91;62.79;101581.66;6214085;23;20019;-59
2022/08/21 05:12:31;;;;;;;11.32;6.88;;;;;;;16.97;62.67;101581.66;6215665;23;20004;-60
2022/08/21 05:14:59;;;;;;;11.10;6.60;;;;;;;16.94;62.75;101588.69;6215368;23;20020;-60
2022/08/21 05:17:25;;;;;;;11.05;6.13;;;;;;;16.87;63.07;101591.75;6214901;23;20004;-60
2022/08/21 05:19:50;;;;;;;10.30;6.57;;;;;;;16.86;63.05;101592.88;6214888;23;20015;-60
2022/08/21 05:22:20;;;;;;;8.65;5.85;;;;;;;16.89;63.10;101595.09;6215892;23;20012;-60
2022/08/21 05:24:45;;;;;;;11.82;6.65;;;;;;;16.87;63.04;101591.75;6214923;23;20008;-60
2022/08/21 05:27:10;;;;;;;9.02;6.15;;;;;;;16.86;63.09;101597.66;6215467;23;20083;-60
2022/08/21 05:29:35;;;;;;;11.43;5.95;;;;;;;16.95;62.94;101607.19;6215749;23;20013;-60
2022/08/21 05:32:09;;;;;;;10.05;5.72;;;;;;;16.97;62.83;101604.09;6214887;23;20376;-60
2022/08/21 05:34:34;;;;;;;8.73;5.97;;;;;;;16.95;62.78;101597.94;6215916;23;20004;-60
2022/08/21 05:36:59;;;;;;;10.32;5.75;;;;;;;16.89;63.07;101600.72;6215627;23;20027;-60
2022/08/21 05:39:24;;;;;;;12.63;6.10;;;;;;;16.93;62.98;101599.03;6212506;23;20017;-59
2022/08/21 05:41:53;;;;;;;12.55;5.93;;;;;;;16.95;63.09;101606.34;6215263;23;20005;-60
2022/08/21 05:44:18;;;;;;;8.57;5.63;;;;;;;17.02;62.99;101607.78;6215069;23;20015;-60
2022/08/21 05:46:43;;;;;;;10.52;5.68;;;;;;;16.98;63.19;101598.22;6214231;23;20451;-60
2022/08/21 05:49:14;;;;;;;9.82;5.30;;;;;;;17.05;62.93;101595.97;6214414;23;20055;-60
2022/08/21 05:51:41;;;;;;;9.52;5.38;;;;;;;17.03;63.04;101611.41;6215317;23;20012;-60
2022/08/21 05:54:06;;;;;;;9.95;5.88;;;;;;;17.09;62.91;101599.06;6213570;23;20011;-60
2022/08/21 05:56:32;;;;;;;10.30;6.03;;;;;;;17.08;62.95;101608.59;6214987;23;20028;-60
2022/08/21 05:58:58;;;;;;;13.55;6.03;;;;;;;17.02;63.35;101604.13;6213735;23;20005;-60
2022/08/21 06:01:23;;;;;;;10.35;5.57;;;;;;;17.08;63.06;101598.22;6214241;23;20432;-60
2022/08/21 06:03:49;;;;;;;12.95;5.50;;;;;;;17.16;62.91;101600.47;6212687;23;20015;-60
2022/08/21 06:06:14;;;;;;;14.38;5.22;;;;;;;17.04;63.42;101601.88;6214160;23;20011;-61
2022/08/21 06:08:39;;;;;;;11.20;5.45;;;;;;;17.16;63.01;101594.88;6214449;23;20012;-60
2022/08/21 06:11:06;;;;;;;18.45;5.97;;;;;;;17.14;63.37;101599.94;6214308;23;20032;-60
2022/08/21 06:13:32;;;;;;;10.30;5.38;;;;;;;17.12;63.51;101604.13;6214030;23;20040;-60
2022/08/21 06:16:13;;;;;;;11.75;5.18;;;;;;;17.21;63.46;101615.63;6214474;23;20004;-60
2022/08/21 06:18:39;;;;;;;9.48;4.90;;;;;;;17.25;63.61;101606.41;6214100;23;20005;-60
2022/08/21 06:21:05;;;;;;;17.25;6.25;;;;;;;17.35;63.45;101611.16;6213730;23;20013;-60
2022/08/21 06:23:31;;;;;;;11.73;5.60;;;;;;;17.40;63.33;101606.38;6214299;23;20087;-60
2022/08/21 06:25:56;;;;;;;10.50;5.97;;;;;;;17.45;63.33;101605.56;6214208;23;20086;-61
2022/08/21 06:28:22;;;;;;;11.55;5.65;;;;;;;17.50;63.38;101605.53;6213574;23;20032;-60
2022/08/21 06:30:48;;;;;;;12.10;5.47;;;;;;;17.55;63.45;101607.50;6214287;23;20000;-60
2022/08/21 06:33:14;;;;;;;19.27;6.35;;;;;;;17.52;63.57;101608.91;6214604;23;20080;-60
2022/08/21 06:35:39;;;;;;;12.35;5.75;;;;;;;17.63;63.72;101606.94;6213469;23;20001;-60
2022/08/21 06:38:04;;;;;;;11.30;5.50;;;;;;;17.72;63.31;101610.00;6214019;23;20001;-60
2022/08/21 06:40:30;;;;;;;11.85;5.78;;;;;;;17.80;63.34;101610.34;6214443;23;20027;-60
2022/08/21 06:43:06;;;;;;;13.30;5.38;;;;;;;17.89;63.21;101605.81;6213634;23;20032;-60
2022/08/21 06:45:32;;;;;;;9.65;5.35;;;;;;;18.01;62.94;101605.50;6215021;23;20465;-60
2022/08/21 06:47:57;;;;;;;9.35;5.22;;;;;;;18.07;63.25;101609.97;6214359;23;20463;-59
2022/08/21 06:50:22;;;;;;;9.13;4.50;;;;;;;18.09;63.57;101607.72;6213497;23;20005;-59
2022/08/21 06:52:48;;;;;;;12.30;4.70;;;;;;;18.23;63.34;101601.50;6213763;23;20335;-59
2022/08/21 06:55:13;;;;;;;13.63;5.55;;;;;;;18.28;62.98;101604.31;6212811;23;20090;-59
2022/08/21 06:57:38;;;;;;;10.05;4.70;;;;;;;18.40;63.04;101613.25;6214459;23;20004;-59
2022/08/21 07:00:06;;;;;;;13.73;4.85;;;;;;;18.45;63.08;101613.22;6214109;23;20051;-60
2022/08/21 07:02:40;;;;;;;8.75;4.43;;;;;;;18.57;62.78;101604.44;6213523;23;20058;-58
2022/08/21 07:05:06;;;;;;;12.77;5.05;;;;;;;18.55;63.55;101607.56;6213936;23;20004;-60
2022/08/21 07:07:31;;;;;;;11.38;4.90;;;;;;;18.66;63.19;101597.06;6214616;23;20062;-59
2022/08/21 07:09:56;;;;;;;13.70;4.97;;;;;;;18.69;63.85;101595.66;6212233;23;20088;-59
2022/08/21 07:12:22;;;;;;;9.32;4.55;;;;;;;18.78;63.73;101602.38;6214334;23;20680;-59
2022/08/21 07:14:47;;;;;;;11.00;5.22;;;;;;;18.84;63.46;101602.06;6213523;23;20389;-59
2022/08/21 07:17:12;;;;;;;13.02;5.00;;;;;;;18.98;63.55;101601.41;6212935;23;20009;-59
2022/08/21 07:19:37;;;;;;;9.82;4.68;;;;;;;19.07;62.99;101596.88;6214344;23;20015;-59
2022/08/21 07:22:03;;;;;;;12.77;4.97;;;;;;;19.19;63.14;101599.31;6214250;23;20431;-59
2022/08/21 07:24:29;;;;;;;9.07;4.57;;;;;;;19.19;63.38;101602.97;6211710;23;20020;-59
2022/08/21 07:26:54;;;;;;;10.68;5.05;;;;;;;19.28;63.53;101595.56;6213675;23;20005;-59
2022/08/21 07:29:19;;;;;;;12.88;4.85;;;;;;;19.33;63.26;101595.53;6214247;23;20043;-59
2022/08/21 07:31:45;;;;;;;12.20;4.80;;;;;;;19.42;63.61;101603.38;6213242;23;20007;-60
2022/08/21 07:34:10;;;;;;;12.13;4.60;;;;;;;19.39;63.37;101601.97;6213890;23;20001;-59
2022/08/21 07:36:36;;;;;;;14.23;4.47;;;;;;;19.46;63.05;101605.28;6212868;23;20039;-59
2022/08/21 07:39:01;;;;;;;13.32;4.85;;;;;;;19.45;63.10;101594.31;6213058;23;20558;-60
2022/08/21 07:41:29;;;;;;;14.30;4.63;;;;;;;19.55;63.45;101605.50;6214226;23;20034;-60
2022/08/21 07:43:57;;;;;;;12.15;5.28;;;;;;;19.47;63.28;101592.03;6213798;23;20047;-59
2022/08/21 07:46:23;;;;;;;14.15;4.57;;;;;;;19.60;63.11;101599.78;6212167;23;20028;-58
2022/08/21 07:48:48;;;;;;;10.40;3.78;;;;;;;19.72;62.85;101602.25;6213950;23;20344;-58
2022/08/21 07:51:16;;;;;;;12.63;4.43;;;;;;;19.84;63.05;101600.72;6213717;23;20079;-58
2022/08/21 07:53:42;;;;;;;13.40;3.97;;;;;;;19.91;62.43;101606.00;6213256;23;20372;-60
2022/08/21 07:56:08;;;;;;;11.13;3.60;;;;;;;19.92;62.29;101604.84;6214356;23;20013;-60
2022/08/21 07:58:34;;;;;;;10.60;3.72;;;;;;;19.91;62.03;101597.56;6213155;23;20418;-59
2022/08/21 08:00:59;;;;;;;10.38;3.90;;;;;;;20.00;62.00;101595.78;6213818;23;20035;-59
2022/08/21 08:03:25;;;;;;;10.27;3.50;;;;;;;20.10;61.82;101597.63;6212786;23;20370;-60
2022/08/21 08:05:50;;;;;;;12.20;3.47;;;;;;;20.20;61.86;101591.03;6212612;23;20032;-58
2022/08/21 08:08:16;;;;;;;13.48;3.58;;;;;;;20.32;61.79;101594.28;6212867;23;20039;-60
2022/08/21 08:10:43;;;;;;;13.63;3.55;;;;;;;20.42;61.41;101591.31;6213750;23;20000;-58
2022/08/21 08:13:08;;;;;;;10.93;3.55;;;;;;;20.58;60.80;101589.16;6212517;23;20005;-60
2022/08/21 08:15:33;;;;;;;11.68;3.33;;;;;;;20.69;60.80;101590.72;6213957;23;20012;-60
2022/08/21 08:17:59;;;;;;;11.48;3.35;;;;;;;20.74;60.47;101598.25;6213045;23;20004;-60
2022/08/21 08:20:26;;;;;;;10.95;3.45;;;;;;;20.88;60.04;101595.53;6212367;23;20214;-59
2022/08/21 08:22:52;;;;;;;15.25;3.40;;;;;;;20.93;59.88;101592.63;6213759;23;20015;-60
2022/08/21 08:25:19;;;;;;;12.43;3.45;;;;;;;20.96;59.19;101595.69;6214432;23;20005;-59
2022/08/21 08:27:47;;;;;;;10.18;3.20;;;;;;;21.01;59.61;101592.75;6214852;23;20051;-60
2022/08/21 08:30:15;;;;;;;11.40;3.20;;;;;;;21.11;59.89;101602.25;6215695;23;20007;-60
2022/08/21 08:32:41;;;;;;;11.65;2.88;;;;;;;21.24;59.27;101599.47;6215557;23;20035;-60
2022/08/21 08:35:07;;;;;;;10.65;2.90;;;;;;;21.37;59.23;101594.22;6213763;23;20004;-59
2022/08/21 08:37:33;;;;;;;9.77;2.95;;;;;;;21.48;58.70;101590.91;6215380;23;20000;-60
2022/08/21 08:39:58;;;;;;;11.90;3.10;;;;;;;21.58;58.53;101584.25;6214897;23;20441;-59
2022/08/21 08:42:27;;;;;;;8.27;2.80;;;;;;;21.52;58.65;101588.31;6214754;23;20375;-60
2022/08/21 08:45:01;;;;;;;10.23;3.28;;;;;;;21.51;58.76;101579.00;6215784;23;20004;-60
2022/08/21 08:47:29;;;;;;;9.80;2.95;;;;;;;21.66;58.28;101577.88;6215963;23;20009;-60
2022/08/21 08:50:18;;;;;;;8.45;2.45;;;;;;;21.84;58.47;101575.28;6214269;23;20443;-60
2022/08/21 08:52:49;;;;;;;10.93;3.28;;;;;;;21.96;57.66;101575.63;6215142;23;20022;-59
2022/08/21 08:55:20;;;;;;;9.77;2.83;;;;;;;22.07;56.71;101568.63;6214597;23;20324;-60
2022/08/21 08:57:48;;;;;;;11.40;2.95;;;;;;;22.13;56.65;101575.03;6215147;23;20008;-60
2022/08/21 09:00:17;;;;;;;9.85;2.65;;;;;;;22.18;56.46;101569.28;6215066;23;20005;-60
2022/08/21 09:02:44;;;;;;;10.90;2.45;;;;;;;22.27;56.11;101561.72;6214871;23;20001;-60
2022/08/21 09:05:21;;;;;;;9.80;2.83;;;;;;;22.30;56.05;101566.75;6215652;23;20082;-60
2022/08/21 09:08:03;;;;;;;8.88;2.25;;;;;;;22.37;56.05;101557.88;6215352;23;20433;-59
2022/08/21 09:11:01;;;;;;;11.60;2.60;;;;;;;22.39;56.36;101552.72;6214485;23;20001;-60
2022/08/21 09:13:43;;;;;;;9.55;2.50;;;;;;;22.35;55.25;101551.69;6215411;23;20013;-60
2022/08/21 09:16:34;;;;;;;10.60;2.80;;;;;;;22.32;55.18;101546.63;6214350;23;20011;-59
2022/08/21 09:19:05;;;;;;;7.00;2.15;;;;;;;22.24;54.98;101551.91;6214289;23;20090;-60
2022/08/21 09:21:49;;;;;;;10.65;2.42;;;;;;;22.20;54.99;101550.84;6215418;23;20052;-60
2022/08/21 09:24:36;;;;;;;10.70;2.08;;;;;;;22.12;54.95;101560.03;6213221;23;20012;-60
2022/08/21 09:27:16;;;;;;;8.18;1.80;;;;;;;22.20;54.30;101558.47;6215292;23;20130;-59
2022/08/21 09:29:50;;;;;;;8.30;2.03;;;;;;;22.33;53.46;101562.47;6215370;23;20436;-60
2022/08/21 09:32:22;;;;;;;12.45;2.30;;;;;;;22.42;53.57;101560.56;6214441;23;20095;-59
2022/08/21 09:35:11;;;;;;;6.28;2.28;;;;;;;22.46;53.98;101559.63;6214731;23;20020;-59
2022/08/21 09:37:54;;;;;;;9.85;2.08;;;;;;;22.54;52.90;101550.38;6213799;23;20411;-59
2022/08/21 09:40:30;;;;;;;7.88;2.05;;;;;;;22.60;52.10;101556.78;6214627;23;20024;-59
2022/08/21 09:42:59;;;;;;;7.90;2.33;;;;;;;22.63;51.92;101556.13;6215423;23;20436;-59
2022/08/21 09:45:24;;;;;;;6.45;1.60;;;;;;;22.77;51.35;101553.28;6214172;23;20012;-59
2022/08/21 09:47:49;;;;;;;6.95;1.90;;;;;;;22.81;51.90;101556.31;6215222;23;20012;-59
2022/08/21 09:50:19;;;;;;;6.65;2.00;;;;;;;22.88;51.90;101559.53;6215605;23;20028;-60
2022/08/21 09:52:53;;;;;;;10.80;2.40;;;;;;;22.98;52.76;101559.31;6213241;23;20012;-59
2022/08/21 09:58:09;;;;;;;6.40;2.25;;;;;;;22.76;51.00;101546.78;6213771;23;20019;-59
2022/08/21 10:00:35;;;;;;;7.72;2.22;;;;;;;22.86;51.10;101550.50;6215376;23;20087;-59
2022/08/21 10:03:14;;;;;;;7.35;1.98;;;;;;;22.91;51.73;101550.41;6215245;23;20005;-59
2022/08/21 10:05:49;;;;;;;10.05;2.40;;;;;;;22.92;51.54;101550.13;6214008;23;20016;-59
2022/08/21 10:08:22;;;;;;;5.97;1.83;;;;;;;22.78;51.76;101547.28;6215375;23;20336;-59
2022/08/21 10:10:53;;;;;;;5.70;2.60;;;;;;;22.78;52.03;101544.44;6214431;23;20048;-59
2022/08/21 10:13:26;;;;;;;7.28;2.28;;;;;;;22.79;51.11;101550.94;6213977;23;20005;-59
2022/08/21 10:16:06;;;;;;;8.27;2.20;;;;;;;22.89;51.41;101547.06;6215363;23;20028;-60
2022/08/21 10:18:52;;;;;;;4.60;2.20;;;;;;;23.00;51.21;101548.53;6215351;23;20389;-59
2022/08/21 10:21:27;;;;;;;6.80;2.20;;;;;;;22.82;50.41;101541.81;6214349;23;20317;-59
2022/08/21 10:24:19;;;;;;;6.90;2.00;;;;;;;22.79;51.03;101553.78;6214703;23;20024;-59
2022/08/21 10:26:54;;;;;;;8.32;2.47;;;;;;;22.78;50.74;101552.94;6213109;23;20005;-59
2022/08/21 10:29:51;;;;;;;7.22;2.33;;;;;;;22.82;50.74;101550.31;6214494;23;20470;-59
2022/08/21 10:32:27;;;;;;;6.72;2.40;;;;;;;22.79;50.68;101545.28;6214756;23;20499;-60
2022/08/21 10:35:06;;;;;;;7.32;2.38;;;;;;;22.83;50.40;101546.31;6213940;23;20004;-59
2022/08/21 10:37:54;;;;;;;10.82;2.58;;;;;;;22.90;49.84;101543.88;6215091;23;20085;-59
2022/08/21 10:40:25;;;;;;;8.38;2.30;;;;;;;22.98;49.55;101547.97;6213628;23;20021;-59
2022/08/21 10:43:33;;;;;;;5.10;2.20;;;;;;;22.94;49.46;101542.13;6213919;23;20075;-59
2022/08/21 10:46:37;;;;;;;6.07;2.30;;;;;;;22.96;49.64;101541.81;6214567;23;20004;-59
2022/08/21 10:49:22;;;;;;;4.57;2.20;;;;;;;23.01;49.64;101544.53;6213388;23;20008;-59
2022/08/21 10:52:05;;;;;;;8.48;2.55;;;;;;;23.10;49.47;101545.41;6214971;23;20059;-60
2022/08/21 10:54:56;;;;;;;8.82;2.35;;;;;;;23.03;49.20;101543.06;6213899;23;20004;-59
2022/08/21 10:57:44;;;;;;;9.65;2.55;;;;;;;22.95;49.94;101542.97;6197685;23;20017;-59
2022/08/21 11:00:18;;;;;;;6.10;2.22;;;;;;;22.94;49.29;101542.13;6153442;23;20013;-60
2022/08/21 11:03:07;;;;;;;6.70;2.30;;;;;;;22.96;49.98;101541.81;6213213;23;20054;-59
2022/08/21 11:05:53;;;;;;;6.22;2.40;;;;;;;22.97;50.08;101535.84;6215134;23;20004;-60
2022/08/21 11:08:35;;;;;;;7.68;2.58;;;;;;;22.97;50.14;101535.84;6213818;23;20031;-59
2022/08/21 11:11:23;;;;;;;6.32;2.38;;;;;;;23.01;50.08;101536.03;6214293;23;20072;-59
2022/08/21 11:13:57;;;;;;;8.35;2.30;;;;;;;23.05;49.68;101542.72;6214794;23;20150;-59
2022/08/21 11:16:37;;;;;;;6.80;2.50;;;;;;;23.19;49.47;101545.50;6213206;23;20008;-59
2022/08/21 11:19:31;;;;;;;9.48;2.92;;;;;;;23.19;48.85;101537.84;6213737;23;20340;-59
2022/08/21 11:22:06;;;;;;;6.85;2.83;;;;;;;23.22;48.87;101537.19;6181341;23;20015;-59
2022/08/21 11:24:54;;;;;;;8.95;3.17;;;;;;;23.27;48.95;101527.75;6213327;23;20005;-59
2022/08/21 11:27:38;;;;;;;7.78;2.80;;;;;;;23.38;49.16;101536.78;6214275;23;20377;-59
2022/08/21 11:30:05;;;;;;;6.25;2.35;;;;;;;23.37;48.21;101532.28;6213182;23;20009;-59
2022/08/21 11:32:53;;;;;;;9.70;2.50;;;;;;;23.41;47.78;101534.13;6214249;23;20000;-59
2022/08/21 11:35:30;;;;;;;6.78;2.55;;;;;;;23.49;48.00;101518.34;6214104;23;20088;-59